sensor_id;sensor_type;location;lat;lon;timestamp;P1;durP1;ratioP1;P2;durP2;ratioP2
59161;SDS011;44942;48.936;8.260;2023-08-20T00:00:21;2.83;;;2.63;;
59161;SDS011;44942;48.936;8.260;2023-08-20T00:05:22;3.10;;;2.90;;
59161;SDS011;44942;48.936;8.260;2023-08-20T00:10:23;3.28;;;2.90;;
59161;SDS011;44942;48.936;8.260;2023-08-20T00:15:24;3.30;;;3.00;;
59161;SDS011;44942;48.936;8.260;2023-08-20T00:20:27;2.88;;;2.67;;
59161;SDS011;44942;48.936;8.260;2023-08-20T00:25:29;2.80;;;2.60;;
59161;SDS011;44942;48.936;8.260;2023-08-20T00:30:29;3.00;;;2.80;;
59161;SDS011;44942;48.936;8.260;2023-08-20T00:35:30;2.42;;;2.22;;
59161;SDS011;44942;48.936;8.260;2023-08-20T00:40:31;3.10;;;2.80;;
59161;SDS011;44942;48.936;8.260;2023-08-20T00:45:32;2.90;;;2.70;;
59161;SDS011;44942;48.936;8.260;2023-08-20T00:50:33;4.28;;;2.70;;
59161;SDS011;44942;48.936;8.260;2023-08-20T00:55:35;3.00;;;2.80;;
59161;SDS011;44942;48.936;8.260;2023-08-20T01:00:36;3.40;;;3.10;;
59161;SDS011;44942;48.936;8.260;2023-08-20T01:05:39;3.00;;;2.75;;
59161;SDS011;44942;48.936;8.260;2023-08-20T01:11:03;3.00;;;2.80;;
59161;SDS011;44942;48.936;8.260;2023-08-20T01:16:10;2.75;;;2.55;;
59161;SDS011;44942;48.936;8.260;2023-08-20T01:21:14;3.35;;;3.05;;
59161;SDS011;44942;48.936;8.260;2023-08-20T01:31:53;3.22;;;2.95;;
59161;SDS011;44942;48.936;8.260;2023-08-20T01:36:54;3.20;;;2.90;;
59161;SDS011;44942;48.936;8.260;2023-08-20T01:41:55;2.90;;;2.70;;
59161;SDS011;44942;48.936;8.260;2023-08-20T01:51:56;3.30;;;3.00;;
59161;SDS011;44942;48.936;8.260;2023-08-20T01:56:56;3.30;;;3.00;;
59161;SDS011;44942;48.936;8.260;2023-08-20T02:01:57;3.10;;;2.90;;
59161;SDS011;44942;48.936;8.260;2023-08-20T02:06:58;3.00;;;2.80;;
59161;SDS011;44942;48.936;8.260;2023-08-20T02:16:59;3.27;;;3.07;;
59161;SDS011;44942;48.936;8.260;2023-08-20T02:21:59;3.20;;;3.00;;
59161;SDS011;44942;48.936;8.260;2023-08-20T02:27:00;3.38;;;3.10;;
59161;SDS011;44942;48.936;8.260;2023-08-20T02:32:00;3.03;;;2.83;;
59161;SDS011;44942;48.936;8.260;2023-08-20T02:37:01;2.95;;;2.75;;
59161;SDS011;44942;48.936;8.260;2023-08-20T02:47:02;3.27;;;3.07;;
59161;SDS011;44942;48.936;8.260;2023-08-20T02:52:03;3.30;;;3.00;;
59161;SDS011;44942;48.936;8.260;2023-08-20T02:57:03;3.20;;;3.00;;
59161;SDS011;44942;48.936;8.260;2023-08-20T03:02:04;3.28;;;2.97;;
59161;SDS011;44942;48.936;8.260;2023-08-20T03:07:05;3.08;;;2.88;;
59161;SDS011;44942;48.936;8.260;2023-08-20T03:12:06;3.08;;;2.88;;
59161;SDS011;44942;48.936;8.260;2023-08-20T03:17:07;3.20;;;3.00;;
59161;SDS011;44942;48.936;8.260;2023-08-20T03:22:07;3.22;;;3.03;;
59161;SDS011;44942;48.936;8.260;2023-08-20T03:27:08;3.42;;;3.13;;
59161;SDS011;44942;48.936;8.260;2023-08-20T03:37:09;3.27;;;3.07;;
59161;SDS011;44942;48.936;8.260;2023-08-20T03:42:09;3.30;;;3.00;;
59161;SDS011;44942;48.936;8.260;2023-08-20T03:47:10;3.40;;;3.10;;
59161;SDS011;44942;48.936;8.260;2023-08-20T03:57:11;3.17;;;2.97;;
59161;SDS011;44942;48.936;8.260;2023-08-20T04:07:12;4.10;;;3.30;;
59161;SDS011;44942;48.936;8.260;2023-08-20T04:17:13;3.40;;;3.07;;
59161;SDS011;44942;48.936;8.260;2023-08-20T04:27:14;3.30;;;3.10;;
59161;SDS011;44942;48.936;8.260;2023-08-20T04:32:15;3.80;;;3.05;;
59161;SDS011;44942;48.936;8.260;2023-08-20T04:37:16;3.10;;;2.90;;
59161;SDS011;44942;48.936;8.260;2023-08-20T04:47:17;3.30;;;2.93;;
59161;SDS011;44942;48.936;8.260;2023-08-20T04:57:20;3.40;;;3.10;;
59161;SDS011;44942;48.936;8.260;2023-08-20T05:02:20;3.83;;;3.22;;
59161;SDS011;44942;48.936;8.260;2023-08-20T05:07:21;3.30;;;3.10;;
59161;SDS011;44942;48.936;8.260;2023-08-20T05:17:22;3.53;;;3.23;;
59161;SDS011;44942;48.936;8.260;2023-08-20T05:22:22;3.30;;;3.10;;
59161;SDS011;44942;48.936;8.260;2023-08-20T05:32:23;3.50;;;3.20;;
59161;SDS011;44942;48.936;8.260;2023-08-20T05:37:24;3.30;;;3.10;;
59161;SDS011;44942;48.936;8.260;2023-08-20T05:42:24;3.42;;;3.13;;
59161;SDS011;44942;48.936;8.260;2023-08-20T05:52:25;3.50;;;3.20;;
59161;SDS011;44942;48.936;8.260;2023-08-20T05:57:26;3.50;;;3.20;;
59161;SDS011;44942;48.936;8.260;2023-08-20T06:02:26;3.53;;;3.22;;
59161;SDS011;44942;48.936;8.260;2023-08-20T06:07:27;3.35;;;3.15;;
59161;SDS011;44942;48.936;8.260;2023-08-20T06:12:28;3.42;;;3.08;;
59161;SDS011;44942;48.936;8.260;2023-08-20T06:17:28;3.40;;;3.10;;
59161;SDS011;44942;48.936;8.260;2023-08-20T06:27:29;3.50;;;3.20;;
59161;SDS011;44942;48.936;8.260;2023-08-20T06:37:30;3.23;;;3.03;;
59161;SDS011;44942;48.936;8.260;2023-08-20T06:42:31;3.22;;;3.03;;
59161;SDS011;44942;48.936;8.260;2023-08-20T06:47:32;3.80;;;3.50;;
59161;SDS011;44942;48.936;8.260;2023-08-20T06:57:33;3.60;;;3.30;;
59161;SDS011;44942;48.936;8.260;2023-08-20T07:02:33;3.38;;;3.17;;
59161;SDS011;44942;48.936;8.260;2023-08-20T07:07:34;3.47;;;3.17;;
59161;SDS011;44942;48.936;8.260;2023-08-20T07:12:34;3.30;;;3.10;;
59161;SDS011;44942;48.936;8.260;2023-08-20T07:17:38;3.42;;;3.13;;
59161;SDS011;44942;48.936;8.260;2023-08-20T07:22:39;3.50;;;3.20;;
59161;SDS011;44942;48.936;8.260;2023-08-20T07:27:39;3.20;;;3.00;;
59161;SDS011;44942;48.936;8.260;2023-08-20T07:32:43;3.58;;;3.28;;
59161;SDS011;44942;48.936;8.260;2023-08-20T07:37:43;4.00;;;3.70;;
59161;SDS011;44942;48.936;8.260;2023-08-20T07:42:44;3.63;;;3.33;;
59161;SDS011;44942;48.936;8.260;2023-08-20T07:47:45;3.60;;;3.30;;
59161;SDS011;44942;48.936;8.260;2023-08-20T07:52:45;3.40;;;3.10;;
59161;SDS011;44942;48.936;8.260;2023-08-20T07:57:46;3.70;;;3.40;;
59161;SDS011;44942;48.936;8.260;2023-08-20T08:02:48;3.65;;;3.35;;
59161;SDS011;44942;48.936;8.260;2023-08-20T08:07:49;3.50;;;3.20;;
59161;SDS011;44942;48.936;8.260;2023-08-20T08:12:49;3.78;;;3.47;;
59161;SDS011;44942;48.936;8.260;2023-08-20T08:22:50;3.27;;;3.00;;
59161;SDS011;44942;48.936;8.260;2023-08-20T08:27:51;3.25;;;3.05;;
59161;SDS011;44942;48.936;8.260;2023-08-20T08:32:51;3.15;;;2.95;;
59161;SDS011;44942;48.936;8.260;2023-08-20T08:42:53;3.40;;;3.10;;
59161;SDS011;44942;48.936;8.260;2023-08-20T08:47:54;3.13;;;2.92;;
59161;SDS011;44942;48.936;8.260;2023-08-20T08:52:55;3.50;;;3.30;;
59161;SDS011;44942;48.936;8.260;2023-08-20T08:57:56;3.70;;;3.40;;
59161;SDS011;44942;48.936;8.260;2023-08-20T09:02:57;3.70;;;3.40;;
59161;SDS011;44942;48.936;8.260;2023-08-20T09:07:58;3.30;;;3.10;;
59161;SDS011;44942;48.936;8.260;2023-08-20T09:12:59;3.45;;;3.15;;
59161;SDS011;44942;48.936;8.260;2023-08-20T09:18:00;3.53;;;3.25;;
59161;SDS011;44942;48.936;8.260;2023-08-20T09:23:03;3.35;;;3.15;;
59161;SDS011;44942;48.936;8.260;2023-08-20T09:28:04;3.63;;;3.33;;
59161;SDS011;44942;48.936;8.260;2023-08-20T09:33:11;2.92;;;2.72;;
59161;SDS011;44942;48.936;8.260;2023-08-20T09:38:14;3.40;;;3.10;;
59161;SDS011;44942;48.936;8.260;2023-08-20T09:43:15;3.72;;;3.45;;
59161;SDS011;44942;48.936;8.260;2023-08-20T09:48:17;3.13;;;2.90;;
59161;SDS011;44942;48.936;8.260;2023-08-20T09:58:37;3.60;;;3.30;;
59161;SDS011;44942;48.936;8.260;2023-08-20T10:03:38;3.55;;;3.35;;
59161;SDS011;44942;48.936;8.260;2023-08-20T10:08:39;3.80;;;3.50;;
59161;SDS011;44942;48.936;8.260;2023-08-20T10:13:39;3.30;;;3.10;;
59161;SDS011;44942;48.936;8.260;2023-08-20T10:18:40;3.30;;;3.10;;
59161;SDS011;44942;48.936;8.260;2023-08-20T10:23:41;3.20;;;3.00;;
59161;SDS011;44942;48.936;8.260;2023-08-20T10:28:48;3.35;;;3.05;;
59161;SDS011;44942;48.936;8.260;2023-08-20T10:38:50;3.35;;;3.15;;
59161;SDS011;44942;48.936;8.260;2023-08-20T10:43:58;3.50;;;3.20;;
59161;SDS011;44942;48.936;8.260;2023-08-20T10:49:01;3.80;;;3.50;;
59161;SDS011;44942;48.936;8.260;2023-08-20T10:54:08;3.30;;;3.00;;
59161;SDS011;44942;48.936;8.260;2023-08-20T10:59:15;3.42;;;3.13;;
59161;SDS011;44942;48.936;8.260;2023-08-20T11:04:30;3.70;;;3.40;;
59161;SDS011;44942;48.936;8.260;2023-08-20T11:09:34;3.40;;;3.10;;
59161;SDS011;44942;48.936;8.260;2023-08-20T11:14:35;4.13;;;3.20;;
59161;SDS011;44942;48.936;8.260;2023-08-20T11:19:36;3.30;;;3.03;;
59161;SDS011;44942;48.936;8.260;2023-08-20T11:24:37;3.58;;;3.28;;
59161;SDS011;44942;48.936;8.260;2023-08-20T11:29:41;3.35;;;3.05;;
59161;SDS011;44942;48.936;8.260;2023-08-20T11:34:43;3.35;;;3.15;;
59161;SDS011;44942;48.936;8.260;2023-08-20T11:39:44;3.63;;;3.33;;
59161;SDS011;44942;48.936;8.260;2023-08-20T11:44:45;3.78;;;3.35;;
59161;SDS011;44942;48.936;8.260;2023-08-20T11:49:46;3.42;;;3.22;;
59161;SDS011;44942;48.936;8.260;2023-08-20T11:54:47;3.75;;;3.45;;
59161;SDS011;44942;48.936;8.260;2023-08-20T11:59:47;3.60;;;3.30;;
59161;SDS011;44942;48.936;8.260;2023-08-20T12:04:50;3.30;;;3.10;;
59161;SDS011;44942;48.936;8.260;2023-08-20T12:09:51;3.30;;;3.00;;
59161;SDS011;44942;48.936;8.260;2023-08-20T12:14:51;3.58;;;3.30;;
59161;SDS011;44942;48.936;8.260;2023-08-20T12:19:52;3.88;;;3.58;;
59161;SDS011;44942;48.936;8.260;2023-08-20T12:24:52;3.60;;;3.30;;
59161;SDS011;44942;48.936;8.260;2023-08-20T12:29:53;3.60;;;3.40;;
59161;SDS011;44942;48.936;8.260;2023-08-20T12:34:53;3.45;;;3.17;;
59161;SDS011;44942;48.936;8.260;2023-08-20T12:39:54;3.70;;;3.40;;
59161;SDS011;44942;48.936;8.260;2023-08-20T12:44:55;3.50;;;3.30;;
59161;SDS011;44942;48.936;8.260;2023-08-20T12:49:55;3.70;;;3.40;;
59161;SDS011;44942;48.936;8.260;2023-08-20T12:54:56;3.70;;;3.40;;
59161;SDS011;44942;48.936;8.260;2023-08-20T12:59:56;3.72;;;3.42;;
59161;SDS011;44942;48.936;8.260;2023-08-20T13:04:57;3.80;;;3.42;;
59161;SDS011;44942;48.936;8.260;2023-08-20T13:09:58;3.50;;;3.28;;
59161;SDS011;44942;48.936;8.260;2023-08-20T13:15:00;4.03;;;3.72;;
59161;SDS011;44942;48.936;8.260;2023-08-20T13:20:04;3.78;;;3.38;;
59161;SDS011;44942;48.936;8.260;2023-08-20T13:25:05;3.50;;;3.30;;
59161;SDS011;44942;48.936;8.260;2023-08-20T13:30:07;3.97;;;3.67;;
59161;SDS011;44942;48.936;8.260;2023-08-20T13:35:08;3.80;;;3.50;;
59161;SDS011;44942;48.936;8.260;2023-08-20T13:40:09;3.45;;;3.15;;
59161;SDS011;44942;48.936;8.260;2023-08-20T13:45:10;4.00;;;3.70;;
59161;SDS011;44942;48.936;8.260;2023-08-20T13:50:11;3.72;;;3.42;;
59161;SDS011;44942;48.936;8.260;2023-08-20T13:55:11;3.97;;;3.67;;
59161;SDS011;44942;48.936;8.260;2023-08-20T14:00:12;3.80;;;3.50;;
59161;SDS011;44942;48.936;8.260;2023-08-20T14:05:13;3.35;;;3.15;;
59161;SDS011;44942;48.936;8.260;2023-08-20T14:10:14;3.83;;;3.53;;
59161;SDS011;44942;48.936;8.260;2023-08-20T14:15:14;4.88;;;3.65;;
59161;SDS011;44942;48.936;8.260;2023-08-20T14:20:15;3.80;;;3.50;;
59161;SDS011;44942;48.936;8.260;2023-08-20T14:25:16;3.88;;;3.58;;
59161;SDS011;44942;48.936;8.260;2023-08-20T14:30:16;3.83;;;3.53;;
59161;SDS011;44942;48.936;8.260;2023-08-20T14:35:17;3.70;;;3.40;;
59161;SDS011;44942;48.936;8.260;2023-08-20T14:40:18;3.40;;;3.20;;
59161;SDS011;44942;48.936;8.260;2023-08-20T14:45:19;3.92;;;3.60;;
59161;SDS011;44942;48.936;8.260;2023-08-20T14:50:19;3.65;;;3.35;;
59161;SDS011;44942;48.936;8.260;2023-08-20T14:55:20;3.67;;;3.38;;
59161;SDS011;44942;48.936;8.260;2023-08-20T15:00:21;3.90;;;3.60;;
59161;SDS011;44942;48.936;8.260;2023-08-20T15:05:22;3.70;;;3.40;;
59161;SDS011;44942;48.936;8.260;2023-08-20T15:10:23;4.03;;;3.72;;
59161;SDS011;44942;48.936;8.260;2023-08-20T15:15:24;3.85;;;3.47;;
59161;SDS011;44942;48.936;8.260;2023-08-20T15:20:28;4.47;;;3.42;;
59161;SDS011;44942;48.936;8.260;2023-08-20T15:25:29;4.07;;;3.78;;
59161;SDS011;44942;48.936;8.260;2023-08-20T15:30:29;3.90;;;3.60;;
59161;SDS011;44942;48.936;8.260;2023-08-20T15:35:31;3.83;;;3.53;;
59161;SDS011;44942;48.936;8.260;2023-08-20T15:40:31;4.28;;;3.88;;
59161;SDS011;44942;48.936;8.260;2023-08-20T15:45:32;4.15;;;3.80;;
59161;SDS011;44942;48.936;8.260;2023-08-20T15:50:32;3.67;;;3.38;;
59161;SDS011;44942;48.936;8.260;2023-08-20T15:55:33;3.88;;;3.55;;
59161;SDS011;44942;48.936;8.260;2023-08-20T16:00:34;3.80;;;3.50;;
59161;SDS011;44942;48.936;8.260;2023-08-20T16:05:35;4.00;;;3.60;;
59161;SDS011;44942;48.936;8.260;2023-08-20T16:10:36;3.80;;;3.50;;
59161;SDS011;44942;48.936;8.260;2023-08-20T16:15:36;3.78;;;3.47;;
59161;SDS011;44942;48.936;8.260;2023-08-20T16:20:37;3.85;;;3.55;;
59161;SDS011;44942;48.936;8.260;2023-08-20T16:25:37;3.83;;;3.53;;
59161;SDS011;44942;48.936;8.260;2023-08-20T16:30:41;3.67;;;3.38;;
59161;SDS011;44942;48.936;8.260;2023-08-20T16:35:45;3.88;;;3.47;;
59161;SDS011;44942;48.936;8.260;2023-08-20T16:40:46;3.90;;;3.60;;
59161;SDS011;44942;48.936;8.260;2023-08-20T16:45:53;3.60;;;3.30;;
59161;SDS011;44942;48.936;8.260;2023-08-20T16:50:55;3.60;;;3.30;;
59161;SDS011;44942;48.936;8.260;2023-08-20T16:55:56;3.60;;;3.30;;
59161;SDS011;44942;48.936;8.260;2023-08-20T17:00:57;3.63;;;3.33;;
59161;SDS011;44942;48.936;8.260;2023-08-20T17:06:01;3.53;;;3.30;;
59161;SDS011;44942;48.936;8.260;2023-08-20T17:11:04;3.30;;;3.00;;
59161;SDS011;44942;48.936;8.260;2023-08-20T17:16:08;3.67;;;3.38;;
59161;SDS011;44942;48.936;8.260;2023-08-20T17:21:09;3.58;;;3.28;;
59161;SDS011;44942;48.936;8.260;2023-08-20T17:26:09;4.05;;;3.60;;
59161;SDS011;44942;48.936;8.260;2023-08-20T17:31:10;3.30;;;3.10;;
59161;SDS011;44942;48.936;8.260;2023-08-20T17:36:10;3.40;;;3.10;;
59161;SDS011;44942;48.936;8.260;2023-08-20T17:41:11;3.70;;;3.40;;
59161;SDS011;44942;48.936;8.260;2023-08-20T17:46:12;3.55;;;3.25;;
59161;SDS011;44942;48.936;8.260;2023-08-20T17:51:12;3.53;;;3.28;;
59161;SDS011;44942;48.936;8.260;2023-08-20T17:56:13;3.50;;;3.20;;
59161;SDS011;44942;48.936;8.260;2023-08-20T18:01:14;3.45;;;3.22;;
59161;SDS011;44942;48.936;8.260;2023-08-20T18:06:14;3.67;;;3.38;;
59161;SDS011;44942;48.936;8.260;2023-08-20T18:11:16;4.07;;;3.30;;
59161;SDS011;44942;48.936;8.260;2023-08-20T18:16:17;3.70;;;3.38;;
59161;SDS011;44942;48.936;8.260;2023-08-20T18:21:17;3.47;;;3.28;;
59161;SDS011;44942;48.936;8.260;2023-08-20T18:26:18;3.33;;;3.10;;
59161;SDS011;44942;48.936;8.260;2023-08-20T18:31:18;3.75;;;3.45;;
59161;SDS011;44942;48.936;8.260;2023-08-20T18:36:19;3.30;;;3.10;;
59161;SDS011;44942;48.936;8.260;2023-08-20T18:41:19;3.22;;;3.00;;
59161;SDS011;44942;48.936;8.260;2023-08-20T18:46:21;3.25;;;3.05;;
59161;SDS011;44942;48.936;8.260;2023-08-20T18:51:22;3.15;;;2.95;;
59161;SDS011;44942;48.936;8.260;2023-08-20T18:56:24;3.08;;;2.88;;
59161;SDS011;44942;48.936;8.260;2023-08-20T19:01:25;3.42;;;3.13;;
59161;SDS011;44942;48.936;8.260;2023-08-20T19:06:25;3.22;;;3.03;;
59161;SDS011;44942;48.936;8.260;2023-08-20T19:11:26;3.13;;;2.92;;
59161;SDS011;44942;48.936;8.260;2023-08-20T19:16:26;3.50;;;3.20;;
59161;SDS011;44942;48.936;8.260;2023-08-20T19:21:27;3.10;;;2.90;;
59161;SDS011;44942;48.936;8.260;2023-08-20T19:26:27;3.67;;;3.38;;
59161;SDS011;44942;48.936;8.260;2023-08-20T19:31:28;3.55;;;3.25;;
59161;SDS011;44942;48.936;8.260;2023-08-20T19:36:29;3.10;;;2.80;;
59161;SDS011;44942;48.936;8.260;2023-08-20T19:41:29;3.17;;;2.97;;
59161;SDS011;44942;48.936;8.260;2023-08-20T19:46:30;3.30;;;3.00;;
59161;SDS011;44942;48.936;8.260;2023-08-20T19:51:30;3.50;;;3.20;;
59161;SDS011;44942;48.936;8.260;2023-08-20T19:56:31;3.20;;;3.00;;
59161;SDS011;44942;48.936;8.260;2023-08-20T20:01:36;3.20;;;3.00;;
59161;SDS011;44942;48.936;8.260;2023-08-20T20:06:51;3.55;;;3.25;;
59161;SDS011;44942;48.936;8.260;2023-08-20T20:11:52;3.10;;;2.90;;
59161;SDS011;44942;48.936;8.260;2023-08-20T20:16:53;3.28;;;3.08;;
59161;SDS011;44942;48.936;8.260;2023-08-20T20:21:53;3.45;;;3.15;;
59161;SDS011;44942;48.936;8.260;2023-08-20T20:26:54;3.35;;;3.05;;
59161;SDS011;44942;48.936;8.260;2023-08-20T20:31:54;3.15;;;2.85;;
59161;SDS011;44942;48.936;8.260;2023-08-20T20:36:55;3.20;;;3.00;;
59161;SDS011;44942;48.936;8.260;2023-08-20T20:41:56;3.20;;;3.00;;
59161;SDS011;44942;48.936;8.260;2023-08-20T20:46:56;3.10;;;2.90;;
59161;SDS011;44942;48.936;8.260;2023-08-20T20:51:57;2.97;;;2.78;;
59161;SDS011;44942;48.936;8.260;2023-08-20T20:57:00;3.17;;;2.97;;
59161;SDS011;44942;48.936;8.260;2023-08-20T21:02:01;2.92;;;2.72;;
59161;SDS011;44942;48.936;8.260;2023-08-20T21:07:03;2.80;;;2.60;;
59161;SDS011;44942;48.936;8.260;2023-08-20T21:12:03;2.90;;;2.70;;
59161;SDS011;44942;48.936;8.260;2023-08-20T21:17:04;2.78;;;2.58;;
59161;SDS011;44942;48.936;8.260;2023-08-20T21:22:11;3.10;;;2.90;;
59161;SDS011;44942;48.936;8.260;2023-08-20T21:27:13;3.30;;;3.00;;
59161;SDS011;44942;48.936;8.260;2023-08-20T21:32:14;3.33;;;3.03;;
59161;SDS011;44942;48.936;8.260;2023-08-20T21:37:14;2.83;;;2.63;;
59161;SDS011;44942;48.936;8.260;2023-08-20T21:42:15;3.10;;;2.90;;
59161;SDS011;44942;48.936;8.260;2023-08-20T21:47:22;3.35;;;3.03;;
59161;SDS011;44942;48.936;8.260;2023-08-20T21:52:25;3.13;;;2.85;;
59161;SDS011;44942;48.936;8.260;2023-08-20T21:57:26;3.10;;;2.90;;
59161;SDS011;44942;48.936;8.260;2023-08-20T22:02:27;3.13;;;2.83;;
59161;SDS011;44942;48.936;8.260;2023-08-20T22:07:27;3.05;;;2.85;;
59161;SDS011;44942;48.936;8.260;2023-08-20T22:12:28;2.90;;;2.70;;
59161;SDS011;44942;48.936;8.260;2023-08-20T22:17:28;3.22;;;2.90;;
59161;SDS011;44942;48.936;8.260;2023-08-20T22:22:29;3.28;;;3.08;;
59161;SDS011;44942;48.936;8.260;2023-08-20T22:27:30;3.22;;;2.92;;
59161;SDS011;44942;48.936;8.260;2023-08-20T22:32:30;3.40;;;3.10;;
59161;SDS011;44942;48.936;8.260;2023-08-20T22:37:31;3.08;;;2.78;;
59161;SDS011;44942;48.936;8.260;2023-08-20T22:42:31;3.10;;;2.90;;
59161;SDS011;44942;48.936;8.260;2023-08-20T22:47:32;3.33;;;3.13;;
59161;SDS011;44942;48.936;8.260;2023-08-20T22:52:33;3.10;;;2.80;;
59161;SDS011;44942;48.936;8.260;2023-08-20T22:57:33;3.17;;;2.90;;
59161;SDS011;44942;48.936;8.260;2023-08-20T23:02:34;3.08;;;2.88;;
59161;SDS011;44942;48.936;8.260;2023-08-20T23:07:35;2.83;;;2.63;;
59161;SDS011;44942;48.936;8.260;2023-08-20T23:12:36;3.10;;;2.90;;
59161;SDS011;44942;48.936;8.260;2023-08-20T23:17:36;3.40;;;3.10;;
59161;SDS011;44942;48.936;8.260;2023-08-20T23:22:37;3.97;;;3.00;;
59161;SDS011;44942;48.936;8.260;2023-08-20T23:27:38;3.00;;;2.80;;
59161;SDS011;44942;48.936;8.260;2023-08-20T23:32:38;3.03;;;2.75;;
59161;SDS011;44942;48.936;8.260;2023-08-20T23:37:39;2.90;;;2.70;;
59161;SDS011;44942;48.936;8.260;2023-08-20T23:42:40;2.90;;;2.60;;
59161;SDS011;44942;48.936;8.260;2023-08-20T23:47:41;3.10;;;2.90;;
59161;SDS011;44942;48.936;8.260;2023-08-20T23:52:41;3.00;;;2.80;;
59161;SDS011;44942;48.936;8.260;2023-08-20T23:57:42;3.47;;;3.17;;
